• Join FlightAware (Why Join?)
  • Login
  • US Flag 
08:05PM EDT


 

Airport Tracker/Info


-or-


 

Live Flight TrackerFlight Track Log ✈ JBU185 ✈ 09-Apr-2013 ✈ KJFK - KSAN

Flight Track Log - Related Links

Times and Time Zones

All times are in EDT time to prevent confusion due to time zone crossing. See the JBU185 flight status page for this flight to view local times or setup timezone preferences in your user account.

Time Position Orientation Groundspeed Altitude Reporting Facility
EDT Latitude Longitude Course Direction KTS MPH feet Rate Location/Type
05:18PM 40.6333 -73.8667 270° West 192 221 2,200  Level New York TRACON
05:19PM 40.5833 -73.9167 217° Southwest 265 305 3,900 2,400 Climbing New York TRACON
05:20PM 40.4222 -74.1168 229° Southwest  Level FlightAware Approximate
05:20PM 40.5167 -73.9667 210° Southwest 271 312 7,000  Level New York TRACON
05:21PM 40.3476 -74.2318 232° Southwest  Level FlightAware Approximate
05:21PM 40.4500 -74.0333 217° Southwest 282 325 9,600  Level New York TRACON
05:22PM 40.2765 -74.3504 232° Southwest  Level FlightAware Approximate
05:22PM 40.4000 -74.1167 232° Southwest 300 345 11,200  Level New York TRACON
05:23PM 40.2041 -74.4613 226° Southwest  Level FlightAware Approximate
05:23PM 40.3731 -74.1736 238° Southwest 339 390 12,000  Level New York Center
05:24PM 40.1833 -74.6032 270° West  Level FlightAware Approximate
05:24PM 40.3111 -74.2903 235° Southwest 362 417 14,400  Level New York Center
05:25PM 40.2625 -74.3858 236° Southwest 367 422 16,300 1,440 Climbing New York Center
05:26PM 40.2025 -74.5050 237° Southwest 367 422 17,300 1,260 Climbing New York Center
05:27PM 40.1897 -74.6400 263° West 367 422 18,900 1,620 Climbing New York Center
05:28PM 40.1786 -74.7833 264° West 386 444 20,600 1,440 Climbing New York Center
05:29PM 40.1722 -74.9081 266° West 386 444 21,800 1,140 Climbing New York Center
05:30PM 40.1589 -75.0486 263° West 386 444 23,000 1,200 Climbing New York Center
05:31PM 40.1475 -75.1917 264° West 396 456 24,300 1,140 Climbing New York Center
05:32PM 40.1356 -75.3375 264° West 401 461 25,300 960 Climbing New York Center
05:33PM 40.1233 -75.4889 264° West 414 476 26,300 900 Climbing New York Center
05:34PM 40.1111 -75.6400 264° West 419 482 27,200 840 Climbing New York Center
05:35PM 40.0983 -75.7911 264° West 424 488 28,000 960 Climbing New York Center
05:36PM 40.0833 -75.9447 263° West 424 488 29,200 1,080 Climbing New York Center
05:37PM 40.0706 -76.0956 264° West 424 488 30,200 1,020 Climbing New York Center
05:38PM 40.0508 -76.2486 260° West 424 488 31,300 840 Climbing New York Center
05:39PM 40.0375 -76.3994 263° West 424 488 31,900 300 Climbing New York Center
05:40PM 40.0322 -76.5511 267° West 424 488 32,000  Climbing New York Center
05:41PM 40.0350 -76.7058 271° West 419 482 32,000  Level New York Center
05:42PM 40.0358 -76.8522 270° West 419 482 32,000  Level New York Center
05:43PM 40.0364 -77.0017 270° West 419 482 32,000  Level New York Center
05:44PM 40.0411 -77.1483 272° West 419 482 32,000  Level New York Center
05:46PM 40.0414 -77.3992 270° West 412 474 32,100  Climbing Cleveland Center
05:47PM 40.0436 -77.5539 271° West 418 481 32,100 -60 Level Cleveland Center
05:48PM 40.0475 -77.7028 272° West 418 481 32,000 -60 Descending Cleveland Center
05:49PM 40.0553 -77.8544 274° West 418 481 32,000  Level Cleveland Center
05:50PM 40.0544 -78.0008 270° West 418 481 32,000  Level Cleveland Center
05:51PM 40.0600 -78.1500 273° West 418 481 32,000  Level Cleveland Center
05:52PM 40.0650 -78.2989 273° West 418 481 32,000  Level Cleveland Center
05:53PM 40.0681 -78.4508 272° West 418 481 32,000  Level Cleveland Center
05:54PM 40.0708 -78.6025 271° West 418 481 32,000  Level Cleveland Center
05:55PM 40.0733 -78.7544 271° West 418 481 32,000  Level Cleveland Center
05:56PM 40.0778 -78.9064 272° West 418 481 32,000  Level Cleveland Center
05:57PM 40.0800 -79.0581 271° West 418 481 32,100  Climbing Cleveland Center
05:58PM 40.0839 -79.2072 272° West 418 481 32,000 -60 Descending Cleveland Center
05:59PM 40.0878 -79.3672 272° West 418 481 32,000  Level Cleveland Center
06:00PM 40.0914 -79.5111 272° West 413 475 32,000  Level Cleveland Center
06:01PM 40.0925 -79.6603 271° West 408 470 32,000  Level Cleveland Center
06:02PM 40.0936 -79.8069 271° West 408 470 32,000  Level Cleveland Center
06:03PM 40.0967 -79.9561 272° West 408 470 32,100  Climbing Cleveland Center
06:04PM 40.0994 -80.1081 271° West 415 478 32,000  Descending Cleveland Center
06:05PM 40.1000 -80.2575 270° West 421 484 32,100  Climbing Cleveland Center
06:06PM 40.1003 -80.3903 270° West 421 484 32,100 -60 Level Cleveland Center
06:07PM 40.1006 -80.5422 270° West 421 484 32,000 -60 Descending Cleveland Center
06:08PM 40.1025 -80.6889 271° West 421 484 32,000  Level Cleveland Center
06:09PM 40.1044 -80.8356 271° West 416 479 32,000  Level Cleveland Center
06:11PM 40.1006 -81.1153 269° West 401 461 32,000  Level Indianapolis Center
06:12PM 40.1003 -81.2881 270° West 405 466 32,000  Level Indianapolis Center
06:13PM 40.1003 -81.4339 270° West 400 460 32,000  Level Indianapolis Center
06:14PM 40.1000 -81.5833 270° West 406 467 32,000  Level Indianapolis Center
06:15PM 40.0989 -81.7325 269° West 407 468 32,000  Level Indianapolis Center
06:16PM 40.0989 -81.8725 270° West 401 461 32,000  Level Indianapolis Center
06:17PM 40.0981 -82.0219 270° West 407 468 32,000  Level Indianapolis Center
06:18PM 40.0967 -82.1975 269° West 410 472 32,000  Level Indianapolis Center
06:19PM 40.0947 -82.3464 269° West 408 470 32,000  Level Indianapolis Center
06:20PM 40.0725 -82.4933 259° West 413 475 32,000  Level Indianapolis Center
06:21PM 40.0350 -82.6333 251° West 406 467 32,000 -60 Level Indianapolis Center
06:22PM 39.9975 -82.7758 251° West 412 474 31,900  Descending Indianapolis Center
06:23PM 39.9753 -82.9200 259° West 409 471 32,000  Climbing Indianapolis Center
06:24PM 39.9742 -83.0939 270° West 408 470 32,000  Level Indianapolis Center
06:25PM 39.9731 -83.2428 269° West 410 472 32,000  Level Indianapolis Center
06:26PM 39.9711 -83.3906 269° West 410 472 32,000  Level Indianapolis Center
06:27PM 39.9694 -83.5375 269° West 411 473 32,000 300 Level Indianapolis Center
06:28PM 39.9672 -83.6850 269° West 411 473 32,700 780 Climbing Indianapolis Center
06:29PM 39.9647 -83.8564 269° West 406 467 33,700 780 Climbing Indianapolis Center
06:30PM 39.9625 -84.0067 269° West 410 472 34,400 720 Climbing Indianapolis Center
06:31PM 39.9600 -84.1542 269° West 406 467 35,200 660 Climbing Indianapolis Center
06:32PM 39.9567 -84.3022 268° West 405 466 35,800 360 Climbing Indianapolis Center
06:33PM 39.9547 -84.4475 269° West 399 459 36,000 60 Climbing Indianapolis Center
06:34PM 39.9508 -84.5922 268° West 398 458 36,000  Level Indianapolis Center
06:35PM 39.9469 -84.7389 268° West 402 463 36,000  Level Indianapolis Center
06:36PM 39.9439 -84.9094 269° West 400 460 36,000  Level Indianapolis Center
06:37PM 39.9392 -85.0544 268° West 399 459 36,000  Level Indianapolis Center
06:39PM 39.9364 -85.2011 269° West 402 463 36,000  Level Indianapolis Center
06:40PM 39.9308 -85.3486 267° West 403 464 36,000  Level Indianapolis Center
06:41PM 39.9275 -85.4942 268° West 401 461 36,000  Level Indianapolis Center
06:42PM 39.9186 -85.6397 265° West 401 461 36,000  Level Indianapolis Center
06:43PM 39.8822 -85.7817 252° West 406 467 36,000  Level Indianapolis Center
06:44PM 39.8511 -85.9481 256° West 402 463 36,000  Level Indianapolis Center
06:45PM 39.8272 -86.0692 256° West 403 464 36,000  Level Indianapolis Center
06:46PM 39.7928 -86.2394 255° West 405 466 36,000  Level Indianapolis Center
06:47PM 39.7717 -86.3806 259° West 401 461 36,100  Climbing Indianapolis Center
06:48PM 39.7678 -86.5258 268° West 401 461 36,000 -60 Descending Indianapolis Center
06:49PM 39.7606 -86.6717 266° West 404 465 36,000  Level Indianapolis Center
06:50PM 39.7550 -86.8181 267° West 406 467 36,000  Level Indianapolis Center
06:51PM 39.7478 -86.9647 266° West 406 467 36,100  Climbing Indianapolis Center
06:52PM 39.7400 -87.1414 267° West 408 470 36,100 -60 Level Indianapolis Center
06:53PM 39.7331 -87.2886 267° West 409 471 36,000  Descending Indianapolis Center
06:54PM 39.7253 -87.4369 266° West 410 472 36,100  Climbing Indianapolis Center
06:55PM 39.7169 -87.5825 266° West 406 467 36,000 -60 Descending Indianapolis Center
06:56PM 39.7100 -87.7303 267° West 408 470 36,000  Level Indianapolis Center
06:57PM 39.7019 -87.8750 266° West 406 467 36,000  Level Indianapolis Center
06:58PM 39.6931 -88.0461 266° West 402 463 36,000  Level Indianapolis Center
06:59PM 39.6861 -88.1650 266° West 401 461 36,000  Level Kansas City Center
07:00PM 39.6767 -88.3181 265° West 402 463 36,000  Level Kansas City Center
07:01PM 39.6683 -88.4639 266° West 404 465 36,000  Level Kansas City Center
07:02PM 39.6461 -88.6094 259° West 413 475 36,100  Climbing Kansas City Center
07:03PM 39.6058 -88.7469 249° West 410 472 36,000 -60 Descending Kansas City Center
07:04PM 39.5661 -88.8842 249° West 408 470 36,000  Level Kansas City Center
07:05PM 39.5178 -89.0492 249° West 407 468 36,000  Level Kansas City Center
07:06PM 39.4769 -89.1869 249° West 409 471 36,000  Level Kansas City Center
07:07PM 39.4408 -89.3103 249° West 409 471 36,000  Level Kansas City Center
07:08PM 39.3922 -89.4722 249° West 406 467 36,000  Level Kansas City Center
07:09PM 39.3508 -89.6097 249° West 409 471 36,000  Level Kansas City Center
07:10PM 39.3097 -89.7467 249° West 411 473 36,000  Level Kansas City Center
07:12PM 39.2692 -89.8817 249° West 408 470 36,000  Level Kansas City Center
07:13PM 39.2278 -90.0167 248° West 407 468 36,000  Level Kansas City Center
07:14PM 39.1867 -90.1511 249° West 406 467 36,000  Level Kansas City Center
07:15PM 39.1369 -90.3128 248° West 408 470 36,000  Level Kansas City Center
07:16PM 39.0961 -90.4478 249° West 408 470 36,000  Level Kansas City Center
07:17PM 39.0536 -90.5819 248° West 410 472 36,000  Level Kansas City Center
07:18PM 39.0136 -90.7131 249° West 399 459 36,000  Level Kansas City Center
07:19PM 38.9725 -90.8458 248° West 401 461 36,000  Level Kansas City Center
07:20PM 38.9222 -91.0036 248° West 401 461 36,000  Level Kansas City Center
07:21PM 38.8806 -91.1364 248° West 402 463 36,000  Level Kansas City Center
07:22PM 38.8358 -91.2700 247° West 406 467 36,100  Climbing Kansas City Center
07:23PM 38.7936 -91.4014 248° West 405 466 36,000 -60 Descending Kansas City Center
07:24PM 38.7517 -91.5308 247° West 400 460 36,000  Level Kansas City Center
07:25PM 38.7028 -91.6886 248° West 398 458 36,000  Level Kansas City Center
07:26PM 38.6594 -91.8164 247° West 394 453 36,000  Level Kansas City Center
07:27PM 38.6161 -91.9469 247° West 396 456 36,100  Climbing Kansas City Center
07:28PM 38.5747 -92.0767 248° West 396 456 36,000 -60 Descending Kansas City Center
07:29PM 38.5317 -92.2053 247° West 395 455 36,000  Level Kansas City Center
07:30PM 38.4894 -92.3336 247° West 394 453 36,000  Level Kansas City Center
07:31PM 38.4628 -92.5014 259° West 404 465 36,100  Climbing Kansas City Center
07:32PM 38.4472 -92.6375 262° West 399 459 36,000 -60 Descending Kansas City Center
07:33PM 38.4300 -92.7753 261° West 395 455 36,000  Level Kansas City Center
07:34PM 38.4136 -92.9147 262° West 397 457 36,000  Level Kansas City Center
07:35PM 38.3961 -93.0525 261° West 396 456 36,000  Level Kansas City Center
07:36PM 38.3794 -93.1883 261° West 392 451 36,000  Level Kansas City Center
07:37PM 38.3592 -93.3542 261° West 394 453 36,000  Level Kansas City Center
07:38PM 38.3414 -93.4947 261° West 399 459 36,000  Level Kansas City Center
07:39PM 38.3236 -93.6350 261° West 402 463 36,100  Climbing Kansas City Center
07:40PM 38.3036 -93.7778 260° West 405 466 36,000  Descending Kansas City Center
07:41PM 38.2861 -93.9189 261° West 405 466 36,100  Climbing Kansas City Center
07:42PM 38.2675 -94.0583 260° West 401 461 36,000 -60 Descending Kansas City Center
07:44PM 38.2469 -94.2139 260° West 399 459 36,000  Level Kansas City Center
07:45PM 38.2294 -94.3467 261° West 398 458 36,000  Level Kansas City Center
07:46PM 38.2083 -94.5036 260° West 400 460 36,100  Climbing Kansas City Center
07:47PM 38.1886 -94.6406 260° West 405 466 36,100 -60 Level Kansas City Center
07:48PM 38.1706 -94.7744 260° West 403 464 36,000  Descending Kansas City Center
07:49PM 38.1492 -94.9303 260° West 401 461 36,100  Climbing Kansas City Center
07:50PM 38.1300 -95.0628 260° West 399 459 36,000 -60 Descending Kansas City Center
07:51PM 38.1075 -95.2197 260° West 402 463 36,000  Level Kansas City Center
07:52PM 38.0897 -95.3517 260° West 397 457 36,100  Climbing Kansas City Center
07:53PM 38.0672 -95.5056 260° West 396 456 36,000 -60 Descending Kansas City Center
07:54PM 38.0486 -95.6361 260° West 393 452 36,000  Level Kansas City Center
07:55PM 38.0261 -95.7878 259° West 391 450 36,000  Level Kansas City Center
07:56PM 38.0061 -95.9189 259° West 394 453 36,000  Level Kansas City Center
07:57PM 37.9950 -96.0514 264° West 396 456 36,000  Level Kansas City Center
07:58PM 37.9881 -96.1889 266° West 401 461 36,000  Level Kansas City Center
07:59PM 37.9800 -96.3583 267° West 403 464 36,100  Climbing Kansas City Center
08:00PM 37.9714 -96.5000 266° West 404 465 36,000 -60 Descending Kansas City Center
08:01PM 37.9633 -96.6453 266° West 412 474 36,000  Level Kansas City Center
08:02PM 37.9558 -96.7906 266° West 413 475 36,000  Level Kansas City Center
08:03PM 37.9475 -96.9331 266° West 408 470 36,100  Climbing Kansas City Center
08:04PM 37.9389 -97.0764 266° West 408 470 36,000 -60 Descending Kansas City Center
08:05PM 37.9308 -97.2186 266° West 406 467 36,000  Level Kansas City Center
08:06PM 37.9194 -97.3892 265° West 405 466 36,000  Level Kansas City Center
08:07PM 37.9111 -97.5358 266° West 403 464 36,000  Level Kansas City Center
08:08PM 37.9272 -97.6786 278° West 413 475 36,000  Level Kansas City Center
08:09PM 37.9453 -97.8178 279° West 412 474 36,000  Level Kansas City Center
08:10PM 37.9647 -97.9622 280° West 413 475 36,000  Level Kansas City Center
08:11PM 38.0011 -98.1144 287° West 435 501 36,000  Level Kansas City Center
08:12PM 38.0400 -98.2744 287° West 435 501 36,100  Climbing Kansas City Center
08:13PM 38.0911 -98.4097 296° West 427 491 36,000 -60 Descending Kansas City Center
08:14PM 38.1422 -98.5461 296° West 428 493 36,000  Level Kansas City Center
08:15PM 38.1994 -98.6800 299° West 430 495 36,000  Level Kansas City Center
08:16PM 38.2572 -98.8125 299° West 429 494 36,000  Level Kansas City Center
08:17PM 38.2703 -98.9803 276° West 403 464 36,000  Level Kansas City Center
08:19PM 38.2531 -99.1117 261° West 382 440 36,000  Level Kansas City Center
08:20PM 38.2361 -99.2461 261° West 384 442 36,000  Level Kansas City Center
08:21PM 38.2183 -99.3811 261° West 388 447 36,100  Climbing Kansas City Center
08:22PM 38.2003 -99.5244 261° West 386 444 36,100 -60 Level Kansas City Center
08:23PM 38.1789 -99.6700 259° West 378 435 36,000 -60 Descending Kansas City Center
08:24PM 38.1639 -99.7975 262° West 380 437 36,000  Level Kansas City Center
08:25PM 38.1439 -99.9464 260° West 383 441 36,000  Level Kansas City Center
08:26PM 38.1258 -100.0786 260° West 392 451 36,100  Climbing Kansas City Center
08:27PM 38.1075 -100.2108 260° West 397 457 36,100  Level Kansas City Center
08:28PM 38.0872 -100.3658 261° West 399 459 36,100  Level Kansas City Center
08:29PM 38.0678 -100.4992 260° West 402 463 36,100 -60 Level Kansas City Center
08:30PM 38.0461 -100.6519 260° West 398 458 36,000 -60 Descending Kansas City Center
08:31PM 38.0286 -100.7817 260° West 393 452 36,000  Level Kansas City Center
08:32PM 38.0131 -100.8878 259° West 390 449 36,000  Level Denver Center
08:33PM 37.9919 -101.0358 260° West 386 444 36,000  Level Denver Center
08:34PM 37.9736 -101.1631 260° West 387 445 36,100  Climbing Denver Center
08:35PM 37.9525 -101.3103 260° West 383 441 36,000 -60 Descending Denver Center
08:36PM 37.9350 -101.4336 260° West 376 433 36,000  Level Denver Center
08:37PM 37.9161 -101.5603 259° West 382 440 36,000  Level Denver Center
08:38PM 37.8897 -101.7342 259° West 397 457 36,100  Climbing Denver Center
08:39PM 37.8661 -101.8892 259° West 401 461 36,100 -60 Level Denver Center
08:40PM 37.8464 -102.0228 259° West 403 464 36,000 -60 Descending Denver Center
08:41PM 37.8264 -102.1572 259° West 407 468 36,000  Level Denver Center
08:42PM 37.8039 -102.2925 258° West 410 472 36,000  Level Denver Center
08:43PM 37.7806 -102.4522 260° West 415 478 36,000  Level Denver Center
08:44PM 37.7550 -102.6036 258° West 423 487 36,100  Climbing Denver Center
08:45PM 37.7314 -102.7644 260° West 418 481 36,000 -60 Descending Denver Center
08:46PM 37.7089 -102.9025 258° West 420 483 36,000  Level Denver Center
08:47PM 37.6825 -103.0636 258° West 421 484 36,000  Level Denver Center
08:48PM 37.6608 -103.2014 259° West 419 482 36,000  Level Denver Center
08:49PM 37.6372 -103.3411 258° West 424 488 36,100  Climbing Denver Center
08:50PM 37.6106 -103.5031 258° West 422 486 36,100 -60 Level Denver Center
08:51PM 37.5881 -103.6406 258° West 417 480 36,000 -60 Descending Denver Center
08:52PM 37.5611 -103.7992 258° West 415 478 36,000  Level Denver Center
08:53PM 37.5372 -103.9386 258° West 420 483 36,000  Level Denver Center
08:54PM 37.5119 -104.0867 258° West 424 488 36,000  Level Denver Center
08:55PM 37.4875 -104.2281 258° West 429 494 36,100  Climbing Denver Center
08:56PM 37.4592 -104.3922 258° West 429 494 36,100 -60 Level Denver Center
08:58PM 37.4342 -104.5319 257° West 427 491 36,000 -60 Descending Denver Center
08:59PM 37.4061 -104.6933 258° West 424 488 36,000  Level Denver Center
09:00PM 37.3814 -104.8325 257° West 425 489 36,000  Level Denver Center
09:01PM 37.3569 -104.9714 258° West 424 488 36,000  Level Denver Center
09:02PM 37.3269 -105.1344 257° West 429 494 36,100  Climbing Denver Center
09:03PM 37.2994 -105.2903 258° West 432 497 36,100 -60 Level Denver Center
09:04PM 37.2725 -105.4381 257° West 428 493 36,000 -60 Descending Denver Center
09:05PM 37.2436 -105.5761 255° West 427 491 36,000  Level Denver Center
09:06PM 37.2150 -105.7417 258° West 434 499 36,000  Level Denver Center
09:07PM 37.1897 -105.8744 257° West 438 504 36,000  Level Denver Center
09:08PM 37.1572 -106.0400 256° West 440 506 36,100  Climbing Denver Center
09:09PM 37.1319 -106.1842 258° West 443 510 36,000 -60 Descending Denver Center
09:10PM 37.0825 -106.3453 249° West 446 513 36,000  Level Denver Center
09:11PM 37.0397 -106.4836 249° West 447 514 36,100  Climbing Denver Center
09:12PM 36.9892 -106.6456 249° West 449 517 36,100 -60 Level Denver Center
09:13PM 36.9469 -106.7853 249° West 450 518 36,000 -60 Descending Denver Center
09:14PM 36.9036 -106.9244 249° West 450 518 36,000  Level Denver Center
09:15PM 36.8519 -107.0839 248° West 444 511 36,000  Level Denver Center
09:16PM 36.8078 -107.2222 248° West 448 516 36,000  Level Denver Center
09:17PM 36.7561 -107.3825 248° West 447 514 36,000  Level Denver Center
09:18PM 36.7117 -107.5192 248° West 447 514 36,000  Level Denver Center
09:19PM 36.6531 -107.7017 248° West 445 512 36,000  Level Denver Center
09:20PM 36.6092 -107.8375 248° West 443 510 36,000  Level Denver Center
09:21PM 36.5567 -107.9950 248° West 443 510 36,000  Level Denver Center
09:22PM 36.5125 -108.1308 248° West 443 510 36,100  Climbing Denver Center
09:23PM 36.4592 -108.2897 247° West 446 513 36,000 -60 Descending Denver Center
09:24PM 36.4153 -108.4247 248° West 444 511 36,000  Level Denver Center
09:25PM 36.3622 -108.5825 247° West 445 512 36,000  Level Denver Center
09:26PM 36.3175 -108.7169 248° West 445 512 36,000  Level Denver Center
09:28PM 36.2714 -108.8506 247° West 445 512 36,000  Level Denver Center
09:29PM 36.2192 -109.0058 247° West 446 513 36,000  Level Denver Center
09:30PM 36.1661 -109.1611 247° West 445 512 36,000  Level Denver Center
09:31PM 36.1200 -109.2953 247° West 445 512 36,000  Level Denver Center
09:31PM 36.1053 -109.3397 248° West 445 512 36,000  Level Albuquerque Center
09:32PM 36.0742 -109.4294 247° West 445 512 36,000  Level Denver Center
09:33PM 36.0194 -109.5867 247° West 447 514 36,000  Level Denver Center
09:34PM 35.9806 -109.7003 247° West 449 517 36,100  Climbing Denver Center
09:35PM 35.9181 -109.8814 247° West 451 519 36,000  Descending Denver Center
09:36PM 35.8711 -110.0178 247° West 451 519 36,100 60 Climbing Denver Center
09:36PM 35.8503 -110.0614 239° Southwest 451 519 36,100 -120 Level Albuquerque Center
09:37PM 35.8014 -110.1972 246° West 451 519 36,000 -60 Descending Albuquerque Center
09:38PM 35.7450 -110.3564 246° West 455 524 36,000  Level Albuquerque Center
09:39PM 35.6967 -110.4919 246° West 454 522 36,000  Level Albuquerque Center
09:40PM 35.6408 -110.6494 246° West 450 518 36,000  Level Albuquerque Center
09:41PM 35.5919 -110.7842 246° West 451 519 36,000  Level Albuquerque Center
09:42PM 35.5358 -110.9408 246° West 450 518 36,000  Level Albuquerque Center
09:43PM 35.4872 -111.0769 246° West 453 521 36,100  Climbing Albuquerque Center
09:44PM 35.4378 -111.2119 246° West 453 521 36,100 -60 Level Albuquerque Center
09:45PM 35.3792 -111.3686 245° Southwest 454 522 36,000 -60 Descending Albuquerque Center
09:46PM 35.3264 -111.5192 247° West 468 539 36,000  Level Albuquerque Center
09:47PM 35.2797 -111.6486 246° West 464 534 36,000  Level Albuquerque Center
09:48PM 35.2222 -111.8033 246° West 460 529 36,000  Level Albuquerque Center
09:49PM 35.1692 -111.9442 245° Southwest 458 527 36,000  Level Albuquerque Center
09:50PM 35.1161 -112.0875 246° West 461 531 36,000  Level Albuquerque Center
09:51PM 35.0622 -112.2300 245° Southwest 461 531 36,000  Level Albuquerque Center
09:52PM 35.0083 -112.3733 245° Southwest 463 533 36,100  Climbing Albuquerque Center
09:53PM 34.9550 -112.5147 245° Southwest 461 531 36,100 -60 Level Albuquerque Center
09:54PM 34.9019 -112.6547 245° Southwest 456 525 36,000 -60 Descending Albuquerque Center
09:55PM 34.8486 -112.7942 245° Southwest 454 522 36,000  Level Albuquerque Center
09:56PM 34.7828 -112.9628 245° Southwest 457 526 36,000  Level Albuquerque Center
09:58PM 34.7283 -113.1039 245° Southwest 460 529 36,100  Climbing Albuquerque Center
09:59PM 34.6742 -113.2447 245° Southwest 459 528 36,100 -60 Level Albuquerque Center
10:00PM 34.6192 -113.3836 244° Southwest 458 527 36,000 -60 Descending Albuquerque Center
10:01PM 34.5650 -113.5219 245° Southwest 455 524 36,000  Level Albuquerque Center
10:02PM 34.5117 -113.6569 244° Southwest 456 525 36,000  Level Albuquerque Center
10:03PM 34.4578 -113.7958 245° Southwest 455 524 36,000 -720 Level Albuquerque Center
10:04PM 34.4019 -113.9358 244° Southwest 459 528 34,600 -1,200 Descending Albuquerque Center
10:05PM 34.3342 -114.1058 244° Southwest 464 534 33,600 -1,500 Descending Albuquerque Center
10:06PM 34.2750 -114.2533 244° Southwest 477 549 31,600 -1,920 Descending Albuquerque Center
10:07PM 34.2186 -114.3967 245° Southwest 476 548 29,700 -1,740 Descending Albuquerque Center
10:07PM 34.2031 -114.4328 242° Southwest 463 533 29,200 -1,200 Descending Los Angeles Center
10:08PM 34.1492 -114.5650 244° Southwest 443 510 28,000 -600 Descending Los Angeles Center
10:09PM 34.0950 -114.6975 244° Southwest 440 506 28,000  Level Los Angeles Center
10:10PM 34.0258 -114.8542 242° Southwest 443 510 28,000  Level Los Angeles Center
10:11PM 33.9686 -114.9861 242° Southwest 444 511 28,000  Level Los Angeles Center
10:12PM 33.9094 -115.1189 242° Southwest 451 519 28,000  Level Los Angeles Center
10:13PM 33.8497 -115.2519 242° Southwest 453 521 28,000  Level Los Angeles Center
10:14PM 33.7903 -115.3847 242° Southwest 451 519 28,000  Level Los Angeles Center
10:15PM 33.7306 -115.5183 242° Southwest 454 522 28,000  Level Los Angeles Center
10:16PM 33.6714 -115.6506 242° Southwest 451 519 28,000 -900 Level Los Angeles Center
10:17PM 33.5953 -115.8089 240° Southwest 458 527 26,200 -1,860 Descending Los Angeles Center
10:18PM 33.5233 -115.9333 235° Southwest 458 527 24,200 -1,440 Descending Los Angeles Center
10:19PM 33.4514 -116.0522 234° Southwest 444 511 23,300 -1,740 Descending Los Angeles Center
10:20PM 33.3819 -116.1742 236° Southwest 445 512 20,700 -2,760 Descending Los Angeles Center
10:21PM 33.2947 -116.2747 224° Southwest 448 516 17,700 -2,640 Descending Los Angeles Center
10:22PM 33.1864 -116.3372 206° Southwest 439 505 15,300 -2,340 Descending Los Angeles Center
10:23PM 33.0881 -116.3950 206° Southwest 411 473 13,000 -1,620 Descending Los Angeles Center
10:25PM 32.9914 -116.4517 206° Southwest 365 420 12,000 -540 Descending Los Angeles Center
10:26PM 32.9078 -116.4986 205° Southwest 340 391 12,000 -840 Level Los Angeles Center
10:27PM 32.8294 -116.5617 214° Southwest 338 389 10,300 -1,500 Descending Los Angeles Center
10:28PM 32.7878 -116.6494 241° Southwest 311 358 9,000 -1,620 Descending Los Angeles Center
10:29PM 32.7469 -116.7347 240° Southwest 301 346 7,100 -1,380 Descending Los Angeles Center
10:30PM 32.7114 -116.8097 241° Southwest 269 310 6,200 -900 Descending Los Angeles Center
10:31PM 32.6850 -116.8889 248° West 224 258 5,300 -720 Descending Los Angeles Center
10:31PM 32.6667 -116.9333 244° Southwest 179 206 5,000 -540 Descending Southern California TRACON
10:32PM 32.6833 -116.9833 292° West 162 186 4,400 -900 Descending Southern California TRACON
10:33PM 32.7000 -117.0333 292° West 150 173 3,200 -1,320 Descending Southern California TRACON
10:34PM 32.7000 -117.0667 270° West 141 162 2,000 -1,020 Descending Southern California TRACON
10:35PM 32.7167 -117.1167 292° West 132 152 1,200 -780 Descending Southern California TRACON
10:36PM 32.7186 -117.1269 283° West 133 153 900 -720 Descending Los Angeles Center
10:37PM 32.7283 -117.1681 286° West 130 150 200 -720 Descending Los Angeles Center